Culemborg, Netherlands
Current Conditions -  °F | °C
As of 12:55 PM on Wednesday 28 Jan 2015 (Local Time) from EHDL Reporting Station
Overcast Overcast  
Wind Chill: 33°   Ceiling: 900
Heat Index: 43°   Visibility: 6mi
Dew Point: 39°   Wind: 24mph
Humidity: 87%   Direction: 200°SSW
Pressure: 29.56"   Gusts: NA
Location:  51.96°N, 5.23°E
Report Text: EHDL 281155Z AUTO 20021KT 9999 BKN009 OVC010 06/04 Q1001 GRN
Loading
Personal Weather Stations






























Interactive Weather Map New forecast layout! Learn more

10-Day Weather Forecast

Advertisements
Track Severe Weather on mobile